sensor_id;sensor_type;location;lat;lon;timestamp;P1;durP1;ratioP1;P2;durP2;ratioP2
3217;SDS011;1621;49.702;8.618;2023-11-19T00:01:35;6.43;;;5.00;;
3217;SDS011;1621;49.702;8.618;2023-11-19T00:04:02;8.00;;;6.67;;
3217;SDS011;1621;49.702;8.618;2023-11-19T00:06:31;7.60;;;5.10;;
3217;SDS011;1621;49.702;8.618;2023-11-19T00:08:57;10.40;;;6.30;;
3217;SDS011;1621;49.702;8.618;2023-11-19T00:11:25;7.23;;;5.80;;
3217;SDS011;1621;49.702;8.618;2023-11-19T00:13:51;7.33;;;5.27;;
3217;SDS011;1621;49.702;8.618;2023-11-19T00:16:18;6.23;;;5.40;;
3217;SDS011;1621;49.702;8.618;2023-11-19T00:18:45;8.30;;;5.03;;
3217;SDS011;1621;49.702;8.618;2023-11-19T00:21:11;7.60;;;5.17;;
3217;SDS011;1621;49.702;8.618;2023-11-19T00:23:38;6.70;;;5.53;;
3217;SDS011;1621;49.702;8.618;2023-11-19T00:26:05;7.60;;;5.57;;
3217;SDS011;1621;49.702;8.618;2023-11-19T00:28:31;6.20;;;5.20;;
3217;SDS011;1621;49.702;8.618;2023-11-19T00:30:58;6.10;;;4.53;;
3217;SDS011;1621;49.702;8.618;2023-11-19T00:33:24;5.47;;;4.70;;
3217;SDS011;1621;49.702;8.618;2023-11-19T00:35:50;5.30;;;4.27;;
3217;SDS011;1621;49.702;8.618;2023-11-19T00:38:17;5.57;;;4.57;;
3217;SDS011;1621;49.702;8.618;2023-11-19T00:40:44;8.33;;;5.03;;
3217;SDS011;1621;49.702;8.618;2023-11-19T00:43:10;14.13;;;5.03;;
3217;SDS011;1621;49.702;8.618;2023-11-19T00:45:37;6.23;;;4.50;;
3217;SDS011;1621;49.702;8.618;2023-11-19T00:48:04;6.27;;;4.50;;
3217;SDS011;1621;49.702;8.618;2023-11-19T00:50:30;5.80;;;4.53;;
3217;SDS011;1621;49.702;8.618;2023-11-19T00:52:56;6.20;;;4.87;;
3217;SDS011;1621;49.702;8.618;2023-11-19T00:55:23;6.37;;;4.70;;
3217;SDS011;1621;49.702;8.618;2023-11-19T00:57:50;8.23;;;4.47;;
3217;SDS011;1621;49.702;8.618;2023-11-19T01:00:16;5.40;;;4.40;;
3217;SDS011;1621;49.702;8.618;2023-11-19T01:02:44;5.40;;;3.93;;
3217;SDS011;1621;49.702;8.618;2023-11-19T01:05:10;5.40;;;4.00;;
3217;SDS011;1621;49.702;8.618;2023-11-19T01:07:39;5.13;;;4.03;;
3217;SDS011;1621;49.702;8.618;2023-11-19T01:10:05;6.70;;;4.97;;
3217;SDS011;1621;49.702;8.618;2023-11-19T01:12:32;4.30;;;3.50;;
3217;SDS011;1621;49.702;8.618;2023-11-19T01:15:00;5.60;;;3.90;;
3217;SDS011;1621;49.702;8.618;2023-11-19T01:17:26;4.70;;;3.57;;
3217;SDS011;1621;49.702;8.618;2023-11-19T01:19:52;5.03;;;3.87;;
3217;SDS011;1621;49.702;8.618;2023-11-19T01:22:19;4.27;;;3.30;;
3217;SDS011;1621;49.702;8.618;2023-11-19T01:24:45;4.33;;;3.33;;
3217;SDS011;1621;49.702;8.618;2023-11-19T01:27:11;4.73;;;3.23;;
3217;SDS011;1621;49.702;8.618;2023-11-19T01:29:37;4.20;;;2.87;;
3217;SDS011;1621;49.702;8.618;2023-11-19T01:32:06;5.20;;;3.47;;
3217;SDS011;1621;49.702;8.618;2023-11-19T01:34:32;4.57;;;3.10;;
3217;SDS011;1621;49.702;8.618;2023-11-19T01:36:58;4.70;;;2.90;;
3217;SDS011;1621;49.702;8.618;2023-11-19T01:39:25;4.60;;;3.30;;
3217;SDS011;1621;49.702;8.618;2023-11-19T01:41:51;4.10;;;3.13;;
3217;SDS011;1621;49.702;8.618;2023-11-19T01:44:17;4.90;;;3.00;;
3217;SDS011;1621;49.702;8.618;2023-11-19T01:46:44;4.40;;;2.87;;
3217;SDS011;1621;49.702;8.618;2023-11-19T01:49:13;4.47;;;2.70;;
3217;SDS011;1621;49.702;8.618;2023-11-19T01:51:40;4.57;;;2.90;;
3217;SDS011;1621;49.702;8.618;2023-11-19T01:54:07;3.50;;;2.40;;
3217;SDS011;1621;49.702;8.618;2023-11-19T01:56:34;4.23;;;3.00;;
3217;SDS011;1621;49.702;8.618;2023-11-19T01:59:01;4.50;;;3.10;;
3217;SDS011;1621;49.702;8.618;2023-11-19T02:01:28;4.17;;;2.73;;
3217;SDS011;1621;49.702;8.618;2023-11-19T02:03:55;3.80;;;2.50;;
3217;SDS011;1621;49.702;8.618;2023-11-19T02:06:24;3.43;;;2.47;;
3217;SDS011;1621;49.702;8.618;2023-11-19T02:08:51;4.50;;;2.53;;
3217;SDS011;1621;49.702;8.618;2023-11-19T02:11:18;3.90;;;2.23;;
3217;SDS011;1621;49.702;8.618;2023-11-19T02:13:44;4.07;;;2.53;;
3217;SDS011;1621;49.702;8.618;2023-11-19T02:16:10;4.23;;;2.53;;
3217;SDS011;1621;49.702;8.618;2023-11-19T02:18:37;5.00;;;2.37;;
3217;SDS011;1621;49.702;8.618;2023-11-19T02:21:03;4.13;;;2.33;;
3217;SDS011;1621;49.702;8.618;2023-11-19T02:23:31;5.43;;;2.70;;
3217;SDS011;1621;49.702;8.618;2023-11-19T02:26:08;3.70;;;2.33;;
3217;SDS011;1621;49.702;8.618;2023-11-19T02:28:36;4.00;;;2.60;;
3217;SDS011;1621;49.702;8.618;2023-11-19T02:31:03;3.63;;;2.40;;
3217;SDS011;1621;49.702;8.618;2023-11-19T02:33:31;3.57;;;2.37;;
3217;SDS011;1621;49.702;8.618;2023-11-19T02:35:57;3.70;;;2.40;;
3217;SDS011;1621;49.702;8.618;2023-11-19T02:38:24;4.03;;;2.80;;
3217;SDS011;1621;49.702;8.618;2023-11-19T02:40:50;3.90;;;2.50;;
3217;SDS011;1621;49.702;8.618;2023-11-19T02:43:17;3.47;;;2.40;;
3217;SDS011;1621;49.702;8.618;2023-11-19T02:45:45;3.50;;;2.30;;
3217;SDS011;1621;49.702;8.618;2023-11-19T02:48:12;3.33;;;1.90;;
3217;SDS011;1621;49.702;8.618;2023-11-19T02:50:39;3.17;;;1.90;;
3217;SDS011;1621;49.702;8.618;2023-11-19T02:53:06;4.70;;;2.60;;
3217;SDS011;1621;49.702;8.618;2023-11-19T02:55:32;3.63;;;2.07;;
3217;SDS011;1621;49.702;8.618;2023-11-19T02:58:02;3.40;;;2.00;;
3217;SDS011;1621;49.702;8.618;2023-11-19T03:00:34;3.90;;;2.43;;
3217;SDS011;1621;49.702;8.618;2023-11-19T03:03:08;3.17;;;2.13;;
3217;SDS011;1621;49.702;8.618;2023-11-19T03:05:45;5.03;;;2.87;;
3217;SDS011;1621;49.702;8.618;2023-11-19T03:08:11;3.97;;;2.60;;
3217;SDS011;1621;49.702;8.618;2023-11-19T03:10:38;3.93;;;2.57;;
3217;SDS011;1621;49.702;8.618;2023-11-19T03:13:05;3.50;;;2.37;;
3217;SDS011;1621;49.702;8.618;2023-11-19T03:15:32;4.27;;;2.40;;
3217;SDS011;1621;49.702;8.618;2023-11-19T03:17:59;3.70;;;2.63;;
3217;SDS011;1621;49.702;8.618;2023-11-19T03:20:26;4.17;;;2.57;;
3217;SDS011;1621;49.702;8.618;2023-11-19T03:22:55;3.77;;;2.80;;
3217;SDS011;1621;49.702;8.618;2023-11-19T03:25:22;3.80;;;2.80;;
3217;SDS011;1621;49.702;8.618;2023-11-19T03:27:50;4.27;;;2.90;;
3217;SDS011;1621;49.702;8.618;2023-11-19T03:30:17;4.23;;;2.70;;
3217;SDS011;1621;49.702;8.618;2023-11-19T03:32:45;4.30;;;3.03;;
3217;SDS011;1621;49.702;8.618;2023-11-19T03:35:12;4.07;;;2.83;;
3217;SDS011;1621;49.702;8.618;2023-11-19T03:37:39;4.70;;;3.13;;
3217;SDS011;1621;49.702;8.618;2023-11-19T03:40:06;4.60;;;3.57;;
3217;SDS011;1621;49.702;8.618;2023-11-19T03:42:32;4.00;;;3.00;;
3217;SDS011;1621;49.702;8.618;2023-11-19T03:44:59;4.77;;;3.47;;
3217;SDS011;1621;49.702;8.618;2023-11-19T03:47:25;4.27;;;2.80;;
3217;SDS011;1621;49.702;8.618;2023-11-19T03:49:51;4.60;;;3.40;;
3217;SDS011;1621;49.702;8.618;2023-11-19T03:52:18;4.50;;;3.50;;
3217;SDS011;1621;49.702;8.618;2023-11-19T03:54:45;4.37;;;2.90;;
3217;SDS011;1621;49.702;8.618;2023-11-19T03:57:12;4.83;;;3.10;;
3217;SDS011;1621;49.702;8.618;2023-11-19T03:59:38;5.20;;;3.40;;
3217;SDS011;1621;49.702;8.618;2023-11-19T04:02:04;4.60;;;3.17;;
3217;SDS011;1621;49.702;8.618;2023-11-19T04:04:31;4.50;;;3.30;;
3217;SDS011;1621;49.702;8.618;2023-11-19T04:06:58;4.60;;;3.40;;
3217;SDS011;1621;49.702;8.618;2023-11-19T04:09:25;5.70;;;3.80;;
3217;SDS011;1621;49.702;8.618;2023-11-19T04:11:53;5.10;;;3.50;;
3217;SDS011;1621;49.702;8.618;2023-11-19T04:14:19;17.43;;;3.43;;
3217;SDS011;1621;49.702;8.618;2023-11-19T04:16:46;4.40;;;3.00;;
3217;SDS011;1621;49.702;8.618;2023-11-19T04:19:12;4.23;;;3.17;;
3217;SDS011;1621;49.702;8.618;2023-11-19T04:21:39;4.57;;;3.47;;
3217;SDS011;1621;49.702;8.618;2023-11-19T04:24:06;5.40;;;3.77;;
3217;SDS011;1621;49.702;8.618;2023-11-19T04:26:32;4.77;;;3.40;;
3217;SDS011;1621;49.702;8.618;2023-11-19T04:29:00;6.03;;;3.83;;
3217;SDS011;1621;49.702;8.618;2023-11-19T04:31:28;5.47;;;4.07;;
3217;SDS011;1621;49.702;8.618;2023-11-19T04:33:56;5.90;;;4.13;;
3217;SDS011;1621;49.702;8.618;2023-11-19T04:36:22;5.30;;;4.10;;
3217;SDS011;1621;49.702;8.618;2023-11-19T04:38:49;5.60;;;4.30;;
3217;SDS011;1621;49.702;8.618;2023-11-19T04:41:16;7.20;;;4.90;;
3217;SDS011;1621;49.702;8.618;2023-11-19T04:43:42;5.40;;;4.50;;
3217;SDS011;1621;49.702;8.618;2023-11-19T04:46:10;6.20;;;4.90;;
3217;SDS011;1621;49.702;8.618;2023-11-19T04:48:36;5.70;;;4.67;;
3217;SDS011;1621;49.702;8.618;2023-11-19T04:51:04;5.20;;;4.50;;
3217;SDS011;1621;49.702;8.618;2023-11-19T04:53:30;5.57;;;4.83;;
3217;SDS011;1621;49.702;8.618;2023-11-19T04:55:56;6.10;;;5.13;;
3217;SDS011;1621;49.702;8.618;2023-11-19T04:58:24;5.70;;;4.90;;
3217;SDS011;1621;49.702;8.618;2023-11-19T05:00:50;6.43;;;5.23;;
3217;SDS011;1621;49.702;8.618;2023-11-19T05:03:18;7.10;;;5.90;;
3217;SDS011;1621;49.702;8.618;2023-11-19T05:05:44;6.07;;;4.90;;
3217;SDS011;1621;49.702;8.618;2023-11-19T05:08:10;6.50;;;5.37;;
3217;SDS011;1621;49.702;8.618;2023-11-19T05:10:37;6.40;;;5.07;;
3217;SDS011;1621;49.702;8.618;2023-11-19T05:13:03;5.80;;;4.77;;
3217;SDS011;1621;49.702;8.618;2023-11-19T05:15:28;7.03;;;5.43;;
3217;SDS011;1621;49.702;8.618;2023-11-19T05:17:55;6.23;;;5.10;;
3217;SDS011;1621;49.702;8.618;2023-11-19T05:20:22;7.43;;;5.77;;
3217;SDS011;1621;49.702;8.618;2023-11-19T05:22:49;6.23;;;5.53;;
3217;SDS011;1621;49.702;8.618;2023-11-19T05:25:16;6.20;;;5.30;;
3217;SDS011;1621;49.702;8.618;2023-11-19T05:27:42;8.53;;;6.40;;
3217;SDS011;1621;49.702;8.618;2023-11-19T05:30:09;7.67;;;5.80;;
3217;SDS011;1621;49.702;8.618;2023-11-19T05:32:35;7.57;;;5.97;;
3217;SDS011;1621;49.702;8.618;2023-11-19T05:35:02;6.50;;;5.50;;
3217;SDS011;1621;49.702;8.618;2023-11-19T05:37:29;6.70;;;5.50;;
3217;SDS011;1621;49.702;8.618;2023-11-19T05:39:56;6.87;;;5.40;;
3217;SDS011;1621;49.702;8.618;2023-11-19T05:42:22;7.00;;;5.30;;
3217;SDS011;1621;49.702;8.618;2023-11-19T05:44:49;6.80;;;4.97;;
3217;SDS011;1621;49.702;8.618;2023-11-19T05:47:15;6.57;;;5.20;;
3217;SDS011;1621;49.702;8.618;2023-11-19T05:49:41;6.77;;;5.70;;
3217;SDS011;1621;49.702;8.618;2023-11-19T05:52:08;7.30;;;5.67;;
3217;SDS011;1621;49.702;8.618;2023-11-19T05:54:37;6.80;;;5.50;;
3217;SDS011;1621;49.702;8.618;2023-11-19T05:57:04;7.13;;;5.53;;
3217;SDS011;1621;49.702;8.618;2023-11-19T05:59:30;6.60;;;5.50;;
3217;SDS011;1621;49.702;8.618;2023-11-19T06:01:58;9.93;;;6.00;;
3217;SDS011;1621;49.702;8.618;2023-11-19T06:04:24;6.83;;;5.33;;
3217;SDS011;1621;49.702;8.618;2023-11-19T06:06:50;6.77;;;5.47;;
3217;SDS011;1621;49.702;8.618;2023-11-19T06:09:17;6.83;;;5.60;;
3217;SDS011;1621;49.702;8.618;2023-11-19T06:11:44;6.70;;;5.50;;
3217;SDS011;1621;49.702;8.618;2023-11-19T06:14:12;8.80;;;5.93;;
3217;SDS011;1621;49.702;8.618;2023-11-19T06:16:38;7.93;;;5.90;;
3217;SDS011;1621;49.702;8.618;2023-11-19T06:19:05;7.73;;;5.93;;
3217;SDS011;1621;49.702;8.618;2023-11-19T06:21:31;8.00;;;5.90;;
3217;SDS011;1621;49.702;8.618;2023-11-19T06:23:58;7.10;;;5.27;;
3217;SDS011;1621;49.702;8.618;2023-11-19T06:26:24;7.27;;;5.87;;
3217;SDS011;1621;49.702;8.618;2023-11-19T06:28:52;7.43;;;5.37;;
3217;SDS011;1621;49.702;8.618;2023-11-19T06:31:18;6.77;;;5.07;;
3217;SDS011;1621;49.702;8.618;2023-11-19T06:33:44;8.20;;;5.73;;
3217;SDS011;1621;49.702;8.618;2023-11-19T06:36:14;7.17;;;5.50;;
3217;SDS011;1621;49.702;8.618;2023-11-19T06:38:41;8.17;;;5.87;;
3217;SDS011;1621;49.702;8.618;2023-11-19T06:41:07;6.83;;;4.83;;
3217;SDS011;1621;49.702;8.618;2023-11-19T06:43:34;7.90;;;5.07;;
3217;SDS011;1621;49.702;8.618;2023-11-19T06:46:02;6.57;;;4.73;;
3217;SDS011;1621;49.702;8.618;2023-11-19T06:48:30;10.40;;;6.13;;
3217;SDS011;1621;49.702;8.618;2023-11-19T06:50:57;8.63;;;6.10;;
3217;SDS011;1621;49.702;8.618;2023-11-19T06:53:23;7.60;;;5.00;;
3217;SDS011;1621;49.702;8.618;2023-11-19T06:55:49;7.17;;;5.10;;
3217;SDS011;1621;49.702;8.618;2023-11-19T06:58:16;6.80;;;4.87;;
3217;SDS011;1621;49.702;8.618;2023-11-19T07:00:43;7.60;;;5.33;;
3217;SDS011;1621;49.702;8.618;2023-11-19T07:03:12;7.13;;;5.30;;
3217;SDS011;1621;49.702;8.618;2023-11-19T07:05:38;7.73;;;5.73;;
3217;SDS011;1621;49.702;8.618;2023-11-19T07:08:05;8.03;;;5.40;;
3217;SDS011;1621;49.702;8.618;2023-11-19T07:10:32;8.90;;;5.00;;
3217;SDS011;1621;49.702;8.618;2023-11-19T07:12:58;7.47;;;5.47;;
3217;SDS011;1621;49.702;8.618;2023-11-19T07:15:25;10.00;;;5.43;;
3217;SDS011;1621;49.702;8.618;2023-11-19T07:17:51;8.37;;;5.90;;
3217;SDS011;1621;49.702;8.618;2023-11-19T07:20:20;8.23;;;4.80;;
3217;SDS011;1621;49.702;8.618;2023-11-19T07:22:47;6.90;;;4.73;;
3217;SDS011;1621;49.702;8.618;2023-11-19T07:25:14;7.40;;;4.90;;
3217;SDS011;1621;49.702;8.618;2023-11-19T07:27:40;7.77;;;5.30;;
3217;SDS011;1621;49.702;8.618;2023-11-19T07:30:08;6.10;;;4.53;;
3217;SDS011;1621;49.702;8.618;2023-11-19T07:32:34;7.17;;;4.87;;
3217;SDS011;1621;49.702;8.618;2023-11-19T07:35:00;7.90;;;5.13;;
3217;SDS011;1621;49.702;8.618;2023-11-19T07:37:28;8.83;;;5.00;;
3217;SDS011;1621;49.702;8.618;2023-11-19T07:39:55;6.90;;;5.50;;
3217;SDS011;1621;49.702;8.618;2023-11-19T07:42:21;8.13;;;4.90;;
3217;SDS011;1621;49.702;8.618;2023-11-19T07:44:48;11.50;;;5.90;;
3217;SDS011;1621;49.702;8.618;2023-11-19T07:47:15;6.13;;;4.50;;
3217;SDS011;1621;49.702;8.618;2023-11-19T07:49:41;7.70;;;4.80;;
3217;SDS011;1621;49.702;8.618;2023-11-19T07:52:08;7.00;;;4.87;;
3217;SDS011;1621;49.702;8.618;2023-11-19T07:54:36;6.20;;;4.43;;
3217;SDS011;1621;49.702;8.618;2023-11-19T07:57:03;8.57;;;5.20;;
3217;SDS011;1621;49.702;8.618;2023-11-19T07:59:29;8.40;;;4.80;;
3217;SDS011;1621;49.702;8.618;2023-11-19T08:01:55;8.97;;;4.97;;
3217;SDS011;1621;49.702;8.618;2023-11-19T08:04:22;7.90;;;4.77;;
3217;SDS011;1621;49.702;8.618;2023-11-19T08:06:48;8.30;;;4.47;;
3217;SDS011;1621;49.702;8.618;2023-11-19T08:09:14;6.60;;;4.47;;
3217;SDS011;1621;49.702;8.618;2023-11-19T08:11:42;8.23;;;4.10;;
3217;SDS011;1621;49.702;8.618;2023-11-19T08:14:08;8.70;;;5.30;;
3217;SDS011;1621;49.702;8.618;2023-11-19T08:16:35;6.70;;;4.20;;
3217;SDS011;1621;49.702;8.618;2023-11-19T08:19:02;6.50;;;4.37;;
3217;SDS011;1621;49.702;8.618;2023-11-19T08:21:29;7.50;;;4.50;;
3217;SDS011;1621;49.702;8.618;2023-11-19T08:23:55;5.43;;;3.80;;
3217;SDS011;1621;49.702;8.618;2023-11-19T08:26:21;5.93;;;4.10;;
3217;SDS011;1621;49.702;8.618;2023-11-19T08:28:49;6.60;;;4.83;;
3217;SDS011;1621;49.702;8.618;2023-11-19T08:31:17;6.23;;;4.30;;
3217;SDS011;1621;49.702;8.618;2023-11-19T08:33:43;6.60;;;4.00;;
3217;SDS011;1621;49.702;8.618;2023-11-19T08:36:14;8.80;;;3.90;;
3217;SDS011;1621;49.702;8.618;2023-11-19T08:38:41;8.70;;;3.40;;
3217;SDS011;1621;49.702;8.618;2023-11-19T08:41:07;6.63;;;4.10;;
3217;SDS011;1621;49.702;8.618;2023-11-19T08:43:33;7.00;;;4.67;;
3217;SDS011;1621;49.702;8.618;2023-11-19T08:46:01;7.17;;;4.80;;
3217;SDS011;1621;49.702;8.618;2023-11-19T08:48:27;5.90;;;4.00;;
3217;SDS011;1621;49.702;8.618;2023-11-19T08:50:54;6.07;;;4.13;;
3217;SDS011;1621;49.702;8.618;2023-11-19T08:53:20;7.57;;;4.10;;
3217;SDS011;1621;49.702;8.618;2023-11-19T08:55:47;7.63;;;4.60;;
3217;SDS011;1621;49.702;8.618;2023-11-19T08:58:14;9.33;;;4.67;;
3217;SDS011;1621;49.702;8.618;2023-11-19T09:00:40;6.67;;;4.20;;
3217;SDS011;1621;49.702;8.618;2023-11-19T09:03:08;7.40;;;4.40;;
3217;SDS011;1621;49.702;8.618;2023-11-19T09:05:35;7.17;;;4.23;;
3217;SDS011;1621;49.702;8.618;2023-11-19T09:08:02;9.10;;;5.43;;
3217;SDS011;1621;49.702;8.618;2023-11-19T09:10:29;6.50;;;4.73;;
3217;SDS011;1621;49.702;8.618;2023-11-19T09:12:55;6.13;;;4.60;;
3217;SDS011;1621;49.702;8.618;2023-11-19T09:15:21;7.50;;;4.87;;
3217;SDS011;1621;49.702;8.618;2023-11-19T09:17:48;7.37;;;5.00;;
3217;SDS011;1621;49.702;8.618;2023-11-19T09:20:15;7.80;;;5.03;;
3217;SDS011;1621;49.702;8.618;2023-11-19T09:22:42;7.90;;;5.23;;
3217;SDS011;1621;49.702;8.618;2023-11-19T09:25:08;7.70;;;5.20;;
3217;SDS011;1621;49.702;8.618;2023-11-19T09:27:35;6.53;;;4.90;;
3217;SDS011;1621;49.702;8.618;2023-11-19T09:30:01;6.90;;;4.30;;
3217;SDS011;1621;49.702;8.618;2023-11-19T09:32:28;9.40;;;5.10;;
3217;SDS011;1621;49.702;8.618;2023-11-19T09:34:55;7.27;;;4.83;;
3217;SDS011;1621;49.702;8.618;2023-11-19T09:37:23;7.43;;;4.03;;
3217;SDS011;1621;49.702;8.618;2023-11-19T09:39:49;6.67;;;5.00;;
3217;SDS011;1621;49.702;8.618;2023-11-19T09:42:15;5.77;;;4.23;;
3217;SDS011;1621;49.702;8.618;2023-11-19T09:44:43;9.93;;;3.97;;
3217;SDS011;1621;49.702;8.618;2023-11-19T09:47:09;5.63;;;3.80;;
3217;SDS011;1621;49.702;8.618;2023-11-19T09:49:36;6.60;;;4.43;;
3217;SDS011;1621;49.702;8.618;2023-11-19T09:52:02;8.20;;;3.90;;
3217;SDS011;1621;49.702;8.618;2023-11-19T09:54:30;5.83;;;3.57;;
3217;SDS011;1621;49.702;8.618;2023-11-19T09:56:57;5.97;;;3.80;;
3217;SDS011;1621;49.702;8.618;2023-11-19T09:59:27;6.63;;;4.20;;
3217;SDS011;1621;49.702;8.618;2023-11-19T10:01:54;6.87;;;4.30;;
3217;SDS011;1621;49.702;8.618;2023-11-19T10:04:22;6.50;;;3.90;;
3217;SDS011;1621;49.702;8.618;2023-11-19T10:06:49;9.10;;;4.67;;
3217;SDS011;1621;49.702;8.618;2023-11-19T10:09:16;6.07;;;4.13;;
3217;SDS011;1621;49.702;8.618;2023-11-19T10:11:43;6.37;;;3.93;;
3217;SDS011;1621;49.702;8.618;2023-11-19T10:14:10;8.00;;;3.77;;
3217;SDS011;1621;49.702;8.618;2023-11-19T10:16:36;7.53;;;4.23;;
3217;SDS011;1621;49.702;8.618;2023-11-19T10:19:04;6.30;;;3.67;;
3217;SDS011;1621;49.702;8.618;2023-11-19T10:21:32;6.40;;;2.97;;
3217;SDS011;1621;49.702;8.618;2023-11-19T10:23:59;5.60;;;3.33;;
3217;SDS011;1621;49.702;8.618;2023-11-19T10:26:26;5.63;;;3.30;;
3217;SDS011;1621;49.702;8.618;2023-11-19T10:28:54;5.90;;;3.70;;
3217;SDS011;1621;49.702;8.618;2023-11-19T10:31:21;7.33;;;4.10;;
3217;SDS011;1621;49.702;8.618;2023-11-19T10:33:50;10.00;;;5.00;;
3217;SDS011;1621;49.702;8.618;2023-11-19T10:36:16;6.60;;;4.40;;
3217;SDS011;1621;49.702;8.618;2023-11-19T10:38:51;7.40;;;4.40;;
3217;SDS011;1621;49.702;8.618;2023-11-19T10:41:26;12.77;;;5.33;;
3217;SDS011;1621;49.702;8.618;2023-11-19T10:43:53;10.77;;;6.07;;
3217;SDS011;1621;49.702;8.618;2023-11-19T10:46:19;10.93;;;5.40;;
3217;SDS011;1621;49.702;8.618;2023-11-19T10:48:48;7.80;;;5.57;;
3217;SDS011;1621;49.702;8.618;2023-11-19T10:51:16;11.80;;;5.77;;
3217;SDS011;1621;49.702;8.618;2023-11-19T10:53:46;10.30;;;5.87;;
3217;SDS011;1621;49.702;8.618;2023-11-19T10:56:15;11.20;;;5.63;;
3217;SDS011;1621;49.702;8.618;2023-11-19T10:58:44;13.00;;;6.13;;
3217;SDS011;1621;49.702;8.618;2023-11-19T11:01:13;9.03;;;5.80;;
3217;SDS011;1621;49.702;8.618;2023-11-19T11:03:40;11.00;;;5.60;;
3217;SDS011;1621;49.702;8.618;2023-11-19T11:06:07;9.83;;;5.60;;
3217;SDS011;1621;49.702;8.618;2023-11-19T11:08:35;10.00;;;5.63;;
3217;SDS011;1621;49.702;8.618;2023-11-19T11:11:02;9.73;;;5.70;;
3217;SDS011;1621;49.702;8.618;2023-11-19T11:13:29;12.40;;;6.00;;
3217;SDS011;1621;49.702;8.618;2023-11-19T11:15:56;10.30;;;7.67;;
3217;SDS011;1621;49.702;8.618;2023-11-19T11:18:24;8.00;;;5.50;;
3217;SDS011;1621;49.702;8.618;2023-11-19T11:20:51;8.77;;;5.07;;
3217;SDS011;1621;49.702;8.618;2023-11-19T11:23:26;8.57;;;4.50;;
3217;SDS011;1621;49.702;8.618;2023-11-19T11:25:58;12.07;;;4.33;;
3217;SDS011;1621;49.702;8.618;2023-11-19T11:28:28;7.20;;;3.77;;
3217;SDS011;1621;49.702;8.618;2023-11-19T11:31:04;16.43;;;3.73;;
3217;SDS011;1621;49.702;8.618;2023-11-19T11:33:38;7.83;;;3.83;;
3217;SDS011;1621;49.702;8.618;2023-11-19T11:36:09;7.97;;;3.63;;
3217;SDS011;1621;49.702;8.618;2023-11-19T11:38:39;7.57;;;3.90;;
3217;SDS011;1621;49.702;8.618;2023-11-19T11:41:16;11.60;;;4.00;;
3217;SDS011;1621;49.702;8.618;2023-11-19T11:43:44;7.07;;;3.67;;
3217;SDS011;1621;49.702;8.618;2023-11-19T11:46:15;7.37;;;3.43;;
3217;SDS011;1621;49.702;8.618;2023-11-19T11:49:03;9.80;;;3.13;;
3217;SDS011;1621;49.702;8.618;2023-11-19T11:54:25;8.90;;;3.43;;
3217;SDS011;1621;49.702;8.618;2023-11-19T11:57:00;6.10;;;2.87;;
3217;SDS011;1621;49.702;8.618;2023-11-19T11:59:27;11.30;;;3.43;;
3217;SDS011;1621;49.702;8.618;2023-11-19T12:01:57;11.03;;;3.27;;
3217;SDS011;1621;49.702;8.618;2023-11-19T12:04:27;6.10;;;2.57;;
3217;SDS011;1621;49.702;8.618;2023-11-19T12:07:02;7.13;;;2.77;;
3217;SDS011;1621;49.702;8.618;2023-11-19T12:09:29;11.77;;;3.10;;
3217;SDS011;1621;49.702;8.618;2023-11-19T12:12:06;8.20;;;2.60;;
3217;SDS011;1621;49.702;8.618;2023-11-19T12:19:56;6.20;;;2.80;;
3217;SDS011;1621;49.702;8.618;2023-11-19T12:22:23;9.37;;;2.97;;
3217;SDS011;1621;49.702;8.618;2023-11-19T12:24:50;7.77;;;2.43;;
3217;SDS011;1621;49.702;8.618;2023-11-19T12:27:17;5.03;;;1.90;;
3217;SDS011;1621;49.702;8.618;2023-11-19T12:29:43;5.60;;;1.97;;
3217;SDS011;1621;49.702;8.618;2023-11-19T12:32:10;10.33;;;2.47;;
3217;SDS011;1621;49.702;8.618;2023-11-19T12:34:36;5.40;;;1.90;;
3217;SDS011;1621;49.702;8.618;2023-11-19T12:37:04;10.10;;;2.20;;
3217;SDS011;1621;49.702;8.618;2023-11-19T12:39:31;9.60;;;2.40;;
3217;SDS011;1621;49.702;8.618;2023-11-19T12:41:58;5.10;;;1.80;;
3217;SDS011;1621;49.702;8.618;2023-11-19T12:44:25;15.23;;;3.00;;
3217;SDS011;1621;49.702;8.618;2023-11-19T12:47:01;11.93;;;2.57;;
3217;SDS011;1621;49.702;8.618;2023-11-19T12:49:27;11.23;;;2.80;;
3217;SDS011;1621;49.702;8.618;2023-11-19T12:51:53;9.47;;;3.00;;
3217;SDS011;1621;49.702;8.618;2023-11-19T12:54:30;6.00;;;1.73;;
3217;SDS011;1621;49.702;8.618;2023-11-19T12:56:57;8.03;;;3.03;;
3217;SDS011;1621;49.702;8.618;2023-11-19T12:59:23;9.10;;;2.73;;
3217;SDS011;1621;49.702;8.618;2023-11-19T13:01:53;8.03;;;2.73;;
3217;SDS011;1621;49.702;8.618;2023-11-19T13:04:20;6.30;;;1.87;;
3217;SDS011;1621;49.702;8.618;2023-11-19T13:06:46;9.40;;;2.70;;
3217;SDS011;1621;49.702;8.618;2023-11-19T13:09:22;12.50;;;2.67;;
3217;SDS011;1621;49.702;8.618;2023-11-19T13:11:49;6.00;;;1.80;;
3217;SDS011;1621;49.702;8.618;2023-11-19T13:14:16;5.97;;;1.67;;
3217;SDS011;1621;49.702;8.618;2023-11-19T13:16:42;5.77;;;1.67;;
3217;SDS011;1621;49.702;8.618;2023-11-19T13:19:10;5.97;;;1.80;;
3217;SDS011;1621;49.702;8.618;2023-11-19T13:21:37;6.70;;;2.10;;
3217;SDS011;1621;49.702;8.618;2023-11-19T13:24:04;4.40;;;1.83;;
3217;SDS011;1621;49.702;8.618;2023-11-19T13:26:32;7.93;;;2.20;;
3217;SDS011;1621;49.702;8.618;2023-11-19T13:28:59;4.97;;;1.70;;
3217;SDS011;1621;49.702;8.618;2023-11-19T13:31:26;4.83;;;2.17;;
3217;SDS011;1621;49.702;8.618;2023-11-19T13:33:52;4.60;;;1.70;;
3217;SDS011;1621;49.702;8.618;2023-11-19T13:36:18;4.43;;;1.80;;
3217;SDS011;1621;49.702;8.618;2023-11-19T13:38:45;5.23;;;1.60;;
3217;SDS011;1621;49.702;8.618;2023-11-19T13:41:12;5.57;;;1.80;;
3217;SDS011;1621;49.702;8.618;2023-11-19T13:43:40;5.03;;;2.10;;
3217;SDS011;1621;49.702;8.618;2023-11-19T13:46:06;4.97;;;2.23;;
3217;SDS011;1621;49.702;8.618;2023-11-19T13:48:35;5.07;;;1.73;;
3217;SDS011;1621;49.702;8.618;2023-11-19T13:51:01;4.83;;;1.57;;
3217;SDS011;1621;49.702;8.618;2023-11-19T13:53:27;7.50;;;2.07;;
3217;SDS011;1621;49.702;8.618;2023-11-19T13:55:53;4.90;;;2.03;;
3217;SDS011;1621;49.702;8.618;2023-11-19T13:58:20;4.90;;;1.77;;
3217;SDS011;1621;49.702;8.618;2023-11-19T14:00:47;7.60;;;1.83;;
3217;SDS011;1621;49.702;8.618;2023-11-19T14:03:14;5.20;;;1.90;;
3217;SDS011;1621;49.702;8.618;2023-11-19T14:05:40;5.93;;;1.70;;
3217;SDS011;1621;49.702;8.618;2023-11-19T14:08:07;6.20;;;1.87;;
3217;SDS011;1621;49.702;8.618;2023-11-19T14:10:36;6.30;;;1.83;;
3217;SDS011;1621;49.702;8.618;2023-11-19T14:13:04;6.13;;;2.37;;
3217;SDS011;1621;49.702;8.618;2023-11-19T14:15:30;4.83;;;1.93;;
3217;SDS011;1621;49.702;8.618;2023-11-19T14:17:58;6.20;;;1.70;;
3217;SDS011;1621;49.702;8.618;2023-11-19T14:20:24;5.47;;;1.83;;
3217;SDS011;1621;49.702;8.618;2023-11-19T14:22:50;4.77;;;2.00;;
3217;SDS011;1621;49.702;8.618;2023-11-19T14:25:17;4.70;;;1.80;;
3217;SDS011;1621;49.702;8.618;2023-11-19T14:27:44;5.40;;;1.57;;
3217;SDS011;1621;49.702;8.618;2023-11-19T14:30:11;7.00;;;2.10;;
3217;SDS011;1621;49.702;8.618;2023-11-19T14:32:38;10.67;;;2.30;;
3217;SDS011;1621;49.702;8.618;2023-11-19T14:35:07;6.60;;;2.20;;
3217;SDS011;1621;49.702;8.618;2023-11-19T14:37:33;10.20;;;2.00;;
3217;SDS011;1621;49.702;8.618;2023-11-19T14:39:58;5.77;;;1.77;;
3217;SDS011;1621;49.702;8.618;2023-11-19T14:42:25;6.93;;;2.03;;
3217;SDS011;1621;49.702;8.618;2023-11-19T14:44:52;6.23;;;1.87;;
3217;SDS011;1621;49.702;8.618;2023-11-19T14:47:18;6.53;;;1.90;;
3217;SDS011;1621;49.702;8.618;2023-11-19T14:49:45;6.20;;;1.93;;
3217;SDS011;1621;49.702;8.618;2023-11-19T14:52:13;5.53;;;2.10;;
3217;SDS011;1621;49.702;8.618;2023-11-19T14:54:39;45.90;;;4.70;;
3217;SDS011;1621;49.702;8.618;2023-11-19T14:57:05;4.97;;;1.70;;
3217;SDS011;1621;49.702;8.618;2023-11-19T14:59:33;6.53;;;1.73;;
3217;SDS011;1621;49.702;8.618;2023-11-19T15:01:59;7.50;;;2.40;;
3217;SDS011;1621;49.702;8.618;2023-11-19T15:04:25;5.57;;;1.93;;
3217;SDS011;1621;49.702;8.618;2023-11-19T15:06:52;6.50;;;2.10;;
3217;SDS011;1621;49.702;8.618;2023-11-19T15:09:19;6.23;;;1.97;;
3217;SDS011;1621;49.702;8.618;2023-11-19T15:11:46;7.23;;;2.27;;
3217;SDS011;1621;49.702;8.618;2023-11-19T15:14:12;6.63;;;2.00;;
3217;SDS011;1621;49.702;8.618;2023-11-19T15:16:40;4.40;;;2.30;;
3217;SDS011;1621;49.702;8.618;2023-11-19T15:19:06;10.63;;;3.50;;
3217;SDS011;1621;49.702;8.618;2023-11-19T15:21:33;12.53;;;5.30;;
3217;SDS011;1621;49.702;8.618;2023-11-19T15:23:59;7.27;;;2.67;;